createdAt,value
2023-04-22T00:00:59.829Z,100335.85
2023-04-22T00:03:31.501Z,100334.19
2023-04-22T00:06:02.726Z,100330.98
2023-04-22T00:08:33.607Z,100331.88
2023-04-22T00:11:04.758Z,100327.13
2023-04-22T00:13:37.193Z,100328.00
2023-04-22T00:16:08.551Z,100323.25
2023-04-22T00:18:39.619Z,100324.48
2023-04-22T00:21:10.585Z,100324.33
2023-04-22T00:23:41.401Z,100318.90
2023-04-22T00:26:12.394Z,100318.58
2023-04-22T00:28:43.987Z,100319.63
2023-04-22T00:31:15.048Z,100317.79
2023-04-22T00:33:46.108Z,100319.36
2023-04-22T00:36:16.922Z,100322.82
2023-04-22T00:38:51.126Z,100319.95
2023-04-22T00:41:22.004Z,100318.45
2023-04-22T00:43:54.791Z,100318.65
2023-04-22T00:46:26.320Z,100321.57
2023-04-22T00:48:57.590Z,100318.19
2023-04-22T00:51:28.501Z,100316.88
2023-04-22T00:53:59.389Z,100314.36
2023-04-22T00:56:31.138Z,100313.72
2023-04-22T00:59:02.635Z,100317.84
2023-04-22T01:01:34.350Z,100315.49
2023-04-22T01:04:06.957Z,100313.30
2023-04-22T01:06:38.084Z,100310.08
2023-04-22T01:09:09.814Z,100308.42
2023-04-22T01:11:41.258Z,100307.59
2023-04-22T01:14:12.306Z,100309.52
2023-04-22T01:16:44.869Z,100308.18
2023-04-22T01:19:16.392Z,100308.71
2023-04-22T01:21:48.322Z,100309.08
2023-04-22T01:24:19.401Z,100312.38
2023-04-22T01:26:50.671Z,100311.73
2023-04-22T01:29:22.129Z,100309.35
2023-04-22T01:31:54.713Z,100313.31
2023-04-22T01:36:04.025Z,100311.80
2023-04-22T01:38:38.061Z,100313.55
2023-04-22T01:41:09.456Z,100313.73
2023-04-22T01:43:40.841Z,100311.20
2023-04-22T01:46:11.688Z,100310.18
2023-04-22T01:48:43.683Z,100310.73
2023-04-22T01:51:14.499Z,100309.52
2023-04-22T01:53:48.669Z,100309.89
2023-04-22T01:56:20.094Z,100311.77
2023-04-22T01:58:51.106Z,100309.73
2023-04-22T02:01:21.960Z,100311.29
2023-04-22T02:03:52.893Z,100305.98
2023-04-22T02:06:23.816Z,100303.26
2023-04-22T02:08:54.615Z,100303.77
2023-04-22T02:11:25.885Z,100305.16
2023-04-22T02:13:57.045Z,100302.64
2023-04-22T02:16:29.040Z,100301.30
2023-04-22T02:19:00.287Z,100295.51
2023-04-22T02:21:33.161Z,100295.19
2023-04-22T02:24:03.960Z,100300.49
2023-04-22T02:26:34.778Z,100298.46
2023-04-22T02:29:05.586Z,100293.35
2023-04-22T02:31:36.451Z,100292.86
2023-04-22T02:34:07.451Z,100290.48
2023-04-22T02:36:38.757Z,100290.84
2023-04-22T02:39:09.918Z,100293.23
2023-04-22T02:41:43.192Z,100290.01
2023-04-22T02:44:14.176Z,100290.20
2023-04-22T02:46:45.873Z,100290.20
2023-04-22T02:49:16.627Z,100289.35
2023-04-22T02:51:47.977Z,100291.26
2023-04-22T02:54:18.870Z,100289.38
2023-04-22T02:56:49.857Z,100290.92
2023-04-22T02:59:20.784Z,100290.08
2023-04-22T03:01:51.772Z,100290.95
2023-04-22T03:04:35.442Z,100288.91
2023-04-22T03:07:06.474Z,100292.34
2023-04-22T03:09:38.903Z,100290.63
2023-04-22T03:12:10.685Z,100297.13
2023-04-22T03:14:41.573Z,100298.16
2023-04-22T03:17:12.556Z,100298.52
2023-04-22T03:19:43.630Z,100294.62
2023-04-22T03:22:14.982Z,100298.73
2023-04-22T03:24:46.392Z,100300.11
2023-04-22T03:27:17.307Z,100298.77
2023-04-22T03:29:48.171Z,100300.98
2023-04-22T03:32:19.091Z,100309.02
2023-04-22T03:34:50.870Z,100305.79
2023-04-22T03:37:22.739Z,100308.86
2023-04-22T03:39:53.602Z,100307.51
2023-04-22T03:42:24.605Z,100310.58
2023-04-22T03:44:55.677Z,100307.52
2023-04-22T03:47:27.996Z,100312.30
2023-04-22T03:50:01.612Z,100311.10
2023-04-22T03:52:35.705Z,100315.38
2023-04-22T03:55:07.525Z,100314.16
2023-04-22T03:57:39.058Z,100316.38
2023-04-22T04:00:11.924Z,100318.74
2023-04-22T04:02:45.187Z,100320.44
2023-04-22T04:05:17.786Z,100319.23
2023-04-22T04:07:49.053Z,100320.39
2023-04-22T04:10:20.126Z,100321.23
2023-04-22T04:12:51.720Z,100324.40
2023-04-22T04:15:24.268Z,100325.66
2023-04-22T04:17:56.923Z,100328.06
2023-04-22T04:20:28.354Z,100325.85
2023-04-22T04:22:59.278Z,100329.25
2023-04-22T04:25:37.820Z,100325.23
2023-04-22T04:28:12.087Z,100321.71
2023-04-22T04:30:43.374Z,100321.20
2023-04-22T04:33:16.784Z,100318.77
2023-04-22T04:35:48.437Z,100320.73
2023-04-22T04:38:21.601Z,100324.20
2023-04-22T04:40:53.943Z,100324.90
2023-04-22T04:43:29.472Z,100325.99
2023-04-22T04:46:21.241Z,100325.52
2023-04-22T04:48:54.126Z,100324.42
2023-04-22T04:51:26.733Z,100323.80
2023-04-22T04:53:59.080Z,100326.98
2023-04-22T04:56:32.756Z,100328.87
2023-04-22T04:59:03.792Z,100322.88
2023-04-22T05:01:36.791Z,100323.21
2023-04-22T05:04:11.894Z,100324.11
2023-04-22T05:06:45.204Z,100322.55
2023-04-22T05:09:17.909Z,100320.21
2023-04-22T05:11:49.056Z,100321.69
2023-04-22T05:14:22.570Z,100328.09
2023-04-22T05:16:53.689Z,100324.35
2023-04-22T05:19:24.636Z,100324.77
2023-04-22T05:21:55.851Z,100322.55
2023-04-22T05:24:27.282Z,100322.86
2023-04-22T05:26:58.566Z,100321.41
2023-04-22T05:29:30.131Z,100319.66
2023-04-22T05:32:01.008Z,100319.75
2023-04-22T05:34:32.187Z,100322.13
2023-04-22T05:37:03.524Z,100323.34
2023-04-22T05:39:35.247Z,100320.35
2023-04-22T05:42:06.949Z,100318.61
2023-04-22T05:44:38.245Z,100319.23
2023-04-22T05:47:09.529Z,100316.17
2023-04-22T05:49:41.085Z,100319.25
2023-04-22T05:52:18.937Z,100314.09
2023-04-22T05:55:11.078Z,100313.39
2023-04-22T05:57:41.876Z,100311.95
2023-04-22T06:00:22.524Z,100310.98
2023-04-22T06:02:58.489Z,100313.06
2023-04-22T06:05:29.533Z,100313.05
2023-04-22T06:08:01.811Z,100312.79
2023-04-22T06:10:32.656Z,100316.54
2023-04-22T06:13:03.718Z,100314.02
2023-04-22T06:15:37.152Z,100317.45
2023-04-22T06:18:08.791Z,100311.84
2023-04-22T06:20:40.564Z,100308.69
2023-04-22T06:23:11.246Z,100307.83
2023-04-22T06:25:42.033Z,100309.24
2023-04-22T06:28:19.866Z,100308.15
2023-04-22T06:30:51.438Z,100307.36
2023-04-22T06:33:23.229Z,100310.98
2023-04-22T06:35:54.406Z,100307.14
2023-04-22T06:38:25.260Z,100309.30
2023-04-22T06:41:15.220Z,100306.48
2023-04-22T06:43:49.885Z,100306.08
2023-04-22T06:46:51.168Z,100308.71
2023-04-22T06:49:40.840Z,100305.13
2023-04-22T06:52:44.434Z,100306.25
2023-04-22T06:55:16.408Z,100303.38
2023-04-22T06:57:47.237Z,100303.35
2023-04-22T07:00:19.885Z,100305.39
2023-04-22T07:02:51.887Z,100300.95
2023-04-22T07:05:23.212Z,100301.41
2023-04-22T07:07:54.764Z,100299.05
2023-04-22T07:10:27.032Z,100304.45
2023-04-22T07:13:18.076Z,100301.34
2023-04-22T07:15:48.810Z,100301.05
2023-04-22T07:18:19.505Z,100298.84
2023-04-22T07:20:50.189Z,100296.86
2023-04-22T07:23:21.660Z,100298.75
2023-04-22T07:25:52.463Z,100297.66
2023-04-22T07:28:23.169Z,100298.67
2023-04-22T07:30:55.447Z,100298.73
2023-04-22T07:33:26.213Z,100296.21
2023-04-22T07:35:56.937Z,100297.69
2023-04-22T07:38:27.697Z,100293.41
2023-04-22T07:40:58.424Z,100295.64
2023-04-22T07:43:29.218Z,100292.73
2023-04-22T07:46:00.062Z,100290.66
2023-04-22T07:48:30.848Z,100284.59
2023-04-22T07:51:01.574Z,100285.26
2023-04-22T07:53:32.245Z,100283.04
2023-04-22T07:56:05.429Z,100282.80
2023-04-22T07:58:36.099Z,100285.50
2023-04-22T08:01:07.236Z,100285.93
2023-04-22T08:03:38.031Z,100284.95
2023-04-22T08:06:08.976Z,100285.55
2023-04-22T08:08:39.669Z,100288.13
2023-04-22T08:11:10.457Z,100288.83
2023-04-22T08:13:41.103Z,100288.38
2023-04-22T08:16:11.975Z,100290.05
2023-04-22T08:18:42.790Z,100290.86
2023-04-22T08:21:14.543Z,100285.28
2023-04-22T08:23:45.267Z,100283.33
2023-04-22T08:26:16.984Z,100281.29
2023-04-22T08:28:47.950Z,100279.39
2023-04-22T08:31:18.689Z,100282.95
2023-04-22T08:33:50.896Z,100285.96
2023-04-22T08:36:23.124Z,100278.80
2023-04-22T08:38:54.743Z,100278.30
2023-04-22T08:41:27.144Z,100278.60
2023-04-22T08:43:58.669Z,100276.06
2023-04-22T08:46:29.864Z,100279.50
2023-04-22T08:49:04.070Z,100276.36
2023-04-22T08:51:35.013Z,100273.98
2023-04-22T08:54:06.095Z,100274.77
2023-04-22T08:56:38.217Z,100272.50
2023-04-22T08:59:10.623Z,100270.06
2023-04-22T09:01:42.412Z,100263.20
2023-04-22T09:04:15.847Z,100268.70
2023-04-22T09:06:46.782Z,100261.36
2023-04-22T09:09:18.595Z,100260.36
2023-04-22T09:11:49.349Z,100255.20
2023-04-22T09:14:20.208Z,100257.90
2023-04-22T09:16:51.320Z,100255.77
2023-04-22T09:19:26.484Z,100256.65
2023-04-22T09:22:00.298Z,100257.68
2023-04-22T09:24:31.955Z,100257.30
2023-04-22T09:27:04.342Z,100254.38
2023-04-22T09:29:34.989Z,100252.41
2023-04-22T09:32:12.770Z,100249.38
2023-04-22T09:34:52.786Z,100248.08
2023-04-22T09:37:30.948Z,100244.45
2023-04-22T09:40:07.966Z,100240.44
2023-04-22T09:42:51.869Z,100242.39
2023-04-22T09:45:31.515Z,100239.50
2023-04-22T09:48:08.069Z,100238.11
2023-04-22T09:50:39.638Z,100236.67
2023-04-22T09:53:12.404Z,100233.59
2023-04-22T09:55:45.607Z,100232.09
2023-04-22T09:58:17.829Z,100227.63
2023-04-22T10:00:55.753Z,100227.43
2023-04-22T10:03:26.630Z,100228.30
2023-04-22T10:05:58.996Z,100226.15
2023-04-22T10:08:30.790Z,100225.08
2023-04-22T10:11:01.554Z,100220.23
2023-04-22T10:13:32.458Z,100218.66
2023-04-22T10:16:03.903Z,100219.92
2023-04-22T10:18:35.699Z,100217.23
2023-04-22T10:21:07.455Z,100217.52
2023-04-22T10:23:38.174Z,100212.95
2023-04-22T10:26:08.885Z,100211.00
2023-04-22T10:28:45.392Z,100208.01
2023-04-22T10:31:24.215Z,100210.00
2023-04-22T10:34:13.268Z,100206.36
2023-04-22T10:36:59.237Z,100202.34
2023-04-22T10:39:31.093Z,100200.13
2023-04-22T10:42:15.498Z,100201.77
2023-04-22T10:44:52.220Z,100201.24
2023-04-22T10:47:31.013Z,100201.48
2023-04-22T10:50:24.170Z,100195.62
2023-04-22T10:52:58.450Z,100191.95
2023-04-22T10:55:52.738Z,100194.87
2023-04-22T10:58:25.912Z,100192.20
2023-04-22T11:01:00.273Z,100184.80
2023-04-22T11:03:32.413Z,100187.23
2023-04-22T11:06:22.317Z,100186.09
2023-04-22T11:09:09.297Z,100186.95
2023-04-22T11:11:41.400Z,100187.72
2023-04-22T11:14:13.328Z,100182.61
2023-04-22T11:16:49.333Z,100181.70
2023-04-22T11:19:20.136Z,100175.09
2023-04-22T11:21:51.360Z,100171.38
2023-04-22T11:24:22.548Z,100169.84
2023-04-22T11:26:56.929Z,100168.94
2023-04-22T11:29:28.191Z,100169.38
2023-04-22T11:31:59.881Z,100164.52
2023-04-22T11:34:32.044Z,100161.17
2023-04-22T11:37:02.713Z,100157.84
2023-04-22T11:39:47.559Z,100151.24
2023-04-22T11:42:29.819Z,100155.80
2023-04-22T11:45:00.590Z,100158.13
2023-04-22T11:47:34.735Z,100157.61
2023-04-22T11:50:10.229Z,100156.36
2023-04-22T11:52:50.341Z,100158.92
2023-04-22T11:55:24.224Z,100157.79
2023-04-22T11:57:59.497Z,100160.64
2023-04-22T12:00:34.132Z,100156.94
2023-04-22T12:03:09.033Z,100157.32
2023-04-22T12:05:41.829Z,100156.46
2023-04-22T12:08:14.074Z,100153.33
2023-04-22T12:10:47.091Z,100152.41
2023-04-22T12:13:25.997Z,100148.35
2023-04-22T12:15:59.478Z,100150.04
2023-04-22T12:18:34.736Z,100148.30
2023-04-22T12:21:11.329Z,100150.68
2023-04-22T12:23:46.327Z,100151.66
2023-04-22T12:26:17.888Z,100150.80
2023-04-22T12:28:49.869Z,100148.67
2023-04-22T12:31:21.438Z,100151.45
2023-04-22T12:33:52.592Z,100148.02
2023-04-22T12:36:25.132Z,100144.45
2023-04-22T12:38:56.464Z,100142.07
2023-04-22T12:41:27.236Z,100139.70
2023-04-22T12:43:57.962Z,100139.79
2023-04-22T12:46:29.042Z,100136.39
2023-04-22T12:48:59.966Z,100138.30
2023-04-22T12:51:31.077Z,100132.99
2023-04-22T12:54:01.787Z,100128.03
2023-04-22T12:56:32.655Z,100127.67
2023-04-22T12:59:03.566Z,100126.77
2023-04-22T13:01:35.908Z,100120.63
2023-04-22T13:04:07.008Z,100116.92
2023-04-22T13:06:38.661Z,100117.04
2023-04-22T13:09:09.394Z,100113.63
2023-04-22T13:11:40.194Z,100108.77
2023-04-22T13:14:10.997Z,100108.50
2023-04-22T13:16:41.846Z,100109.91
2023-04-22T13:19:12.967Z,100109.38
2023-04-22T13:21:43.760Z,100108.72
2023-04-22T13:24:14.467Z,100109.48
2023-04-22T13:26:45.231Z,100106.70
2023-04-22T13:29:16.020Z,100106.71
2023-04-22T13:31:46.968Z,100106.67
2023-04-22T13:34:17.696Z,100103.64
2023-04-22T13:36:48.460Z,100099.70
2023-04-22T13:39:19.153Z,100101.15
2023-04-22T13:41:49.870Z,100099.98
2023-04-22T13:44:20.894Z,100102.29
2023-04-22T13:46:51.934Z,100099.35
2023-04-22T13:49:22.669Z,100098.20
2023-04-22T13:51:53.435Z,100101.27
2023-04-22T13:54:24.159Z,100095.77
2023-04-22T13:56:54.787Z,100096.92
2023-04-22T13:59:25.591Z,100095.56
2023-04-22T14:01:56.286Z,100095.89
2023-04-22T14:04:27.138Z,100095.27
2023-04-22T14:06:57.948Z,100090.91
2023-04-22T14:09:28.626Z,100092.42
2023-04-22T14:11:59.403Z,100091.11
2023-04-22T14:14:30.092Z,100089.51
2023-04-22T14:17:01.344Z,100089.45
2023-04-22T14:19:32.285Z,100091.11
2023-04-22T14:22:03.085Z,100088.96
2023-04-22T14:24:33.970Z,100090.99
2023-04-22T14:27:05.311Z,100091.05
2023-04-22T14:29:36.031Z,100089.52
2023-04-22T14:32:06.872Z,100089.20
2023-04-22T14:34:39.193Z,100085.77
2023-04-22T14:37:09.873Z,100084.58
2023-04-22T14:39:40.872Z,100086.35
2023-04-22T14:42:12.708Z,100080.29
2023-04-22T14:44:44.059Z,100082.27
2023-04-22T14:47:14.812Z,100079.45
2023-04-22T14:49:46.555Z,100078.84
2023-04-22T14:52:17.702Z,100073.17
2023-04-22T14:54:51.227Z,100074.72
2023-04-22T14:57:23.258Z,100070.86
2023-04-22T14:59:54.088Z,100070.36
2023-04-22T15:02:25.985Z,100070.43
2023-04-22T15:04:56.916Z,100069.90
2023-04-22T15:07:28.021Z,100069.01
2023-04-22T15:09:58.876Z,100070.35
2023-04-22T15:12:29.998Z,100067.37
2023-04-22T15:15:00.759Z,100069.65
2023-04-22T15:17:31.993Z,100070.05
2023-04-22T15:20:05.733Z,100068.45
2023-04-22T15:22:37.437Z,100064.98
2023-04-22T15:25:09.853Z,100064.52
2023-04-22T15:27:41.455Z,100063.35
2023-04-22T15:30:12.675Z,100065.60
2023-04-22T15:32:43.376Z,100057.41
2023-04-22T15:35:14.230Z,100059.88
2023-04-22T15:37:46.393Z,100058.63
2023-04-22T15:40:17.129Z,100055.30
2023-04-22T15:42:47.820Z,100055.63
2023-04-22T15:45:18.645Z,100056.61
2023-04-22T15:47:52.394Z,100052.45
2023-04-22T15:50:25.233Z,100048.41
2023-04-22T15:52:56.303Z,100048.02
2023-04-22T15:55:27.432Z,100045.44
2023-04-22T15:57:58.242Z,100041.62
2023-04-22T16:00:29.074Z,100042.90
2023-04-22T16:03:00.045Z,100041.17
2023-04-22T16:05:31.020Z,100040.47
2023-04-22T16:08:01.840Z,100042.02
2023-04-22T16:10:32.619Z,100041.30
2023-04-22T16:13:03.419Z,100039.19
2023-04-22T16:15:35.007Z,100039.05
2023-04-22T16:18:06.185Z,100038.20
2023-04-22T16:20:37.042Z,100041.41
2023-04-22T16:23:09.194Z,100041.82
2023-04-22T16:25:40.063Z,100035.87
2023-04-22T16:28:11.425Z,100037.73
2023-04-22T16:30:43.473Z,100040.13
2023-04-22T16:33:15.716Z,100038.73
2023-04-22T16:35:48.015Z,100037.48
2023-04-22T16:38:18.843Z,100036.41
2023-04-22T16:40:52.962Z,100034.51
2023-04-22T16:43:24.701Z,100034.39
2023-04-22T16:45:55.816Z,100031.79
2023-04-22T16:48:26.638Z,100030.63
2023-04-22T16:50:58.467Z,100029.10
2023-04-22T16:53:29.790Z,100031.95
2023-04-22T16:56:00.688Z,100034.61
2023-04-22T16:58:32.141Z,100036.95
2023-04-22T17:01:03.145Z,100031.81
2023-04-22T17:03:34.814Z,100033.14
2023-04-22T17:06:06.155Z,100034.39
2023-04-22T17:08:37.134Z,100033.81
2023-04-22T17:11:08.397Z,100035.12
2023-04-22T17:13:39.467Z,100038.48
2023-04-22T17:16:11.170Z,100039.44
2023-04-22T17:18:42.724Z,100034.89
2023-04-22T17:21:13.610Z,100035.32
2023-04-22T17:23:44.637Z,100034.94
2023-04-22T17:26:15.429Z,100034.14
2023-04-22T17:28:46.893Z,100034.79
2023-04-22T17:31:18.417Z,100034.70
2023-04-22T17:33:49.225Z,100034.29
2023-04-22T17:36:20.722Z,100033.86
2023-04-22T17:38:51.920Z,100038.98
2023-04-22T17:41:23.509Z,100040.13
2023-04-22T17:43:54.915Z,100044.17
2023-04-22T17:46:25.681Z,100046.34
2023-04-22T17:48:59.179Z,100048.34
2023-04-22T17:51:30.065Z,100050.55
2023-04-22T17:54:05.397Z,100051.61
2023-04-22T17:56:36.549Z,100052.42
2023-04-22T17:59:07.432Z,100059.10
2023-04-22T18:01:39.276Z,100059.77
2023-04-22T18:04:10.346Z,100061.98
2023-04-22T18:06:41.687Z,100062.80
2023-04-22T18:09:13.069Z,100064.64
2023-04-22T18:11:43.958Z,100065.93
2023-04-22T18:14:14.984Z,100066.82
2023-04-22T18:16:49.710Z,100064.67
2023-04-22T18:19:22.866Z,100064.91
2023-04-22T18:22:00.054Z,100067.43
2023-04-22T18:24:31.452Z,100068.69
2023-04-22T18:27:03.461Z,100067.56
2023-04-22T18:29:38.911Z,100066.73
2023-04-22T18:32:12.894Z,100066.67
2023-04-22T18:34:47.188Z,100071.40
2023-04-22T18:37:19.633Z,100074.38
2023-04-22T18:39:50.794Z,100077.08
2023-04-22T18:42:24.148Z,100078.83
2023-04-22T18:44:55.158Z,100078.71
2023-04-22T18:47:26.527Z,100078.61
2023-04-22T18:49:58.566Z,100083.13
2023-04-22T18:52:31.708Z,100082.31
2023-04-22T18:55:02.535Z,100088.04
2023-04-22T18:57:34.138Z,100082.85
2023-04-22T19:00:06.642Z,100083.20
2023-04-22T19:02:42.356Z,100079.47
2023-04-22T19:05:14.725Z,100079.89
2023-04-22T19:07:46.223Z,100078.77
2023-04-22T19:10:19.430Z,100080.73
2023-04-22T19:12:53.792Z,100080.64
2023-04-22T19:15:24.861Z,100077.47
2023-04-22T19:17:56.035Z,100078.52
2023-04-22T19:20:27.079Z,100081.48
2023-04-22T19:22:57.831Z,100077.76
2023-04-22T19:25:30.575Z,100076.70
2023-04-22T19:28:01.728Z,100082.29
2023-04-22T19:30:32.612Z,100082.19
2023-04-22T19:33:03.625Z,100083.15
2023-04-22T19:35:35.068Z,100083.12
2023-04-22T19:38:06.414Z,100082.42
2023-04-22T19:40:40.962Z,100077.60
2023-04-22T19:43:12.364Z,100075.38
2023-04-22T19:45:43.644Z,100075.38
2023-04-22T19:48:15.500Z,100070.86
2023-04-22T19:50:47.954Z,100072.66
2023-04-22T19:53:19.687Z,100071.48
2023-04-22T19:55:51.401Z,100077.73
2023-04-22T19:58:22.914Z,100076.97
2023-04-22T20:00:54.658Z,100074.71
2023-04-22T20:03:26.601Z,100072.61
2023-04-22T20:06:00.356Z,100069.84
2023-04-22T20:08:31.928Z,100070.63
2023-04-22T20:11:04.053Z,100071.09
2023-04-22T20:13:36.078Z,100074.95
2023-04-22T20:16:07.986Z,100079.51
2023-04-22T20:18:42.186Z,100076.88
2023-04-22T20:21:13.624Z,100077.98
2023-04-22T20:23:49.671Z,100078.91
2023-04-22T20:26:22.586Z,100074.61
2023-04-22T20:28:54.297Z,100075.08
2023-04-22T20:31:29.648Z,100073.83
2023-04-22T20:34:01.680Z,100072.21
2023-04-22T20:36:32.999Z,100073.36
2023-04-22T20:39:06.537Z,100078.85
2023-04-22T20:41:46.133Z,100075.91
2023-04-22T20:44:17.043Z,100080.05
2023-04-22T20:46:48.810Z,100080.77
2023-04-22T20:49:19.699Z,100080.79
2023-04-22T20:51:59.324Z,100078.92
2023-04-22T20:54:41.527Z,100078.60
2023-04-22T20:57:26.066Z,100078.72
2023-04-22T20:59:59.000Z,100077.77
2023-04-22T21:02:35.210Z,100074.41
2023-04-22T21:05:07.807Z,100073.60
2023-04-22T21:07:41.575Z,100071.17
2023-04-22T21:10:17.159Z,100070.77
2023-04-22T21:12:48.947Z,100070.71
2023-04-22T21:15:20.993Z,100067.07
2023-04-22T21:17:56.727Z,100064.23
2023-04-22T21:20:32.462Z,100067.90
2023-04-22T21:23:06.909Z,100070.71
2023-04-22T21:25:40.241Z,100074.41
2023-04-22T21:28:12.255Z,100073.29
2023-04-22T21:30:44.269Z,100073.86
2023-04-22T21:33:15.201Z,100075.31
2023-04-22T21:35:46.102Z,100074.52
2023-04-22T21:38:17.162Z,100073.55
2023-04-22T21:40:48.721Z,100073.25
2023-04-22T21:43:19.644Z,100074.36
2023-04-22T21:45:53.614Z,100073.86
2023-04-22T21:48:24.412Z,100075.44
2023-04-22T21:50:55.242Z,100077.36
2023-04-22T21:53:26.090Z,100075.73
2023-04-22T21:55:57.068Z,100075.11
2023-04-22T21:58:28.185Z,100075.98
2023-04-22T22:00:59.122Z,100077.23
2023-04-22T22:03:31.384Z,100075.89
2023-04-22T22:06:03.161Z,100076.65
2023-04-22T22:08:34.535Z,100077.35
2023-04-22T22:11:07.025Z,100080.88
2023-04-22T22:13:38.926Z,100080.44
2023-04-22T22:16:10.475Z,100083.06
2023-04-22T22:18:41.953Z,100081.44
2023-04-22T22:21:12.846Z,100085.42
2023-04-22T22:23:43.550Z,100084.13
2023-04-22T22:26:15.070Z,100087.06
2023-04-22T22:28:46.323Z,100084.02
2023-04-22T22:31:17.156Z,100088.85
2023-04-22T22:33:48.006Z,100088.73
2023-04-22T22:36:19.128Z,100086.50
2023-04-22T22:38:50.478Z,100088.01
2023-04-22T22:41:21.405Z,100084.91
2023-04-22T22:43:52.182Z,100083.73
2023-04-22T22:46:23.860Z,100081.84
2023-04-22T22:48:54.972Z,100081.17
2023-04-22T22:51:25.770Z,100084.43
2023-04-22T22:53:59.485Z,100081.35
2023-04-22T22:56:30.699Z,100084.25
2023-04-22T22:59:01.429Z,100085.42
2023-04-22T23:01:32.219Z,100084.23
2023-04-22T23:04:03.400Z,100086.83
2023-04-22T23:06:34.271Z,100084.25
2023-04-22T23:09:05.166Z,100083.41
2023-04-22T23:11:35.869Z,100087.02
2023-04-22T23:14:09.749Z,100085.52
2023-04-22T23:16:40.538Z,100082.63
2023-04-22T23:19:11.504Z,100082.50
2023-04-22T23:21:43.016Z,100080.67
2023-04-22T23:24:15.678Z,100084.31
2023-04-22T23:26:47.642Z,100079.60
2023-04-22T23:29:19.974Z,100082.73
2023-04-22T23:31:51.659Z,100081.06
2023-04-22T23:34:24.752Z,100079.38
2023-04-22T23:36:58.324Z,100076.36
2023-04-22T23:39:29.163Z,100071.96
2023-04-22T23:42:01.211Z,100072.70
2023-04-22T23:44:32.577Z,100069.34
2023-04-22T23:47:03.824Z,100071.09
2023-04-22T23:49:35.264Z,100069.60
2023-04-22T23:52:07.126Z,100066.56
2023-04-22T23:54:39.261Z,100066.60
2023-04-22T23:57:11.462Z,100066.98
2023-04-22T23:59:43.489Z,100064.66
